createdAt,value
2022-12-22T05:06:39.455Z,0.28
2022-12-22T05:12:57.328Z,0.64
2022-12-22T05:19:00.463Z,0.40
2022-12-22T05:25:03.596Z,0.78
2022-12-22T05:31:08.573Z,1.04
2022-12-22T05:37:10.727Z,1.32
2022-12-22T05:43:13.437Z,0.87
2022-12-22T05:49:15.532Z,0.97
2022-12-22T05:55:20.501Z,1.14
2022-12-22T06:01:22.635Z,1.11
2022-12-22T06:07:24.882Z,0.84
2022-12-22T06:13:27.372Z,0.95
2022-12-22T06:19:30.893Z,1.13
2022-12-22T06:25:33.128Z,1.02
2022-12-22T06:31:36.829Z,1.22
2022-12-22T06:37:39.278Z,1.13
2022-12-22T06:43:41.367Z,1.45
2022-12-22T06:49:44.569Z,1.90
2022-12-22T06:55:46.997Z,2.36
2022-12-22T07:01:49.651Z,1.64
2022-12-22T07:07:53.164Z,1.61
2022-12-22T07:13:55.696Z,1.74
2022-12-22T07:20:00.373Z,1.22
2022-12-22T07:26:03.407Z,1.41
2022-12-22T07:32:05.763Z,1.32
2022-12-22T07:38:08.501Z,1.72
2022-12-22T07:44:11.310Z,1.66
2022-12-22T07:50:26.639Z,1.00
2022-12-22T07:56:28.819Z,1.29
2022-12-22T08:02:36.870Z,1.91
2022-12-22T08:08:41.659Z,2.46
2022-12-22T08:14:47.448Z,2.59
2022-12-22T08:20:53.152Z,2.16
2022-12-22T08:26:59.884Z,2.15
2022-12-22T08:33:02.012Z,2.04
2022-12-22T08:39:05.462Z,2.33
2022-12-22T08:45:09.544Z,2.74
2022-12-22T08:51:12.734Z,2.71
2022-12-22T08:57:14.878Z,2.72
2022-12-22T09:03:16.991Z,2.53
2022-12-22T09:09:20.427Z,2.65
2022-12-22T09:15:23.097Z,1.95
2022-12-22T09:21:27.453Z,2.67
2022-12-22T09:27:30.614Z,2.82
2022-12-22T09:33:36.576Z,3.33
2022-12-22T09:39:38.703Z,3.18
2022-12-22T09:45:41.354Z,3.52
2022-12-22T09:51:48.549Z,3.67
2022-12-22T09:57:52.000Z,3.68
2022-12-22T10:04:25.267Z,3.03
2022-12-22T10:10:30.336Z,3.33
2022-12-22T10:16:32.728Z,3.53
2022-12-22T10:23:08.285Z,4.00
2022-12-22T10:29:14.865Z,4.25
2022-12-22T10:35:17.591Z,4.45
2022-12-22T10:41:22.403Z,4.43
2022-12-22T10:47:24.835Z,4.84
2022-12-22T10:53:43.192Z,4.65
2022-12-22T10:59:55.709Z,4.77
2022-12-22T11:05:59.375Z,4.86
2022-12-22T11:12:29.240Z,4.59
2022-12-22T11:18:57.350Z,4.20
2022-12-22T11:25:37.053Z,3.99
2022-12-22T11:31:51.349Z,4.58
2022-12-22T11:38:14.747Z,3.93
2022-12-22T11:44:37.093Z,4.19
2022-12-22T11:51:02.092Z,4.62
2022-12-22T11:57:29.495Z,4.84
2022-12-22T12:03:59.342Z,4.53
2022-12-22T12:10:23.478Z,4.61
2022-12-22T12:16:36.212Z,4.22
2022-12-22T12:22:48.034Z,4.31
2022-12-22T12:29:02.407Z,4.75
2022-12-22T12:35:28.563Z,4.40
2022-12-22T12:41:53.353Z,4.59
2022-12-22T12:48:24.967Z,4.62
2022-12-22T12:54:27.046Z,4.17
2022-12-22T13:00:33.058Z,4.00
2022-12-22T13:06:51.068Z,4.31
2022-12-22T13:12:55.055Z,4.13
2022-12-22T13:19:00.203Z,4.32
2022-12-22T13:25:04.291Z,4.23
2022-12-22T13:31:14.199Z,4.19
2022-12-22T13:37:22.416Z,4.31
2022-12-22T13:43:26.920Z,4.38
2022-12-22T13:49:59.191Z,4.18
2022-12-22T13:55:57.793Z,4.06
2022-12-22T14:02:11.524Z,4.25
2022-12-22T14:08:13.779Z,3.83
2022-12-22T14:14:22.083Z,3.98
2022-12-22T14:20:29.544Z,3.92
2022-12-22T14:26:33.152Z,4.12
2022-12-22T14:32:54.087Z,4.02
2022-12-22T14:39:05.384Z,3.93
2022-12-22T14:45:15.849Z,3.87
2022-12-22T14:51:20.341Z,3.83
2022-12-22T14:57:51.667Z,3.60
2022-12-22T15:04:00.946Z,3.51
2022-12-22T15:10:15.338Z,3.34
2022-12-22T15:16:21.587Z,3.30
2022-12-22T15:22:26.864Z,3.44
2022-12-22T15:28:30.378Z,3.53
2022-12-22T15:34:32.746Z,2.71
2022-12-22T15:40:34.853Z,2.53
2022-12-22T15:46:41.681Z,2.60
2022-12-22T15:52:51.804Z,2.71
2022-12-22T15:58:54.144Z,3.05
2022-12-22T16:04:56.958Z,2.80
2022-12-22T16:11:00.080Z,2.78
2022-12-22T16:17:03.311Z,3.10
2022-12-22T16:23:07.761Z,2.88
2022-12-22T16:29:16.075Z,2.73
2022-12-22T16:35:21.825Z,3.10
2022-12-22T16:41:25.802Z,2.76
2022-12-22T16:47:33.379Z,2.66
2022-12-22T16:53:35.493Z,2.86
2022-12-22T16:59:37.569Z,2.70
2022-12-22T17:05:47.078Z,2.67
2022-12-22T17:11:51.073Z,2.52
2022-12-22T17:17:53.551Z,2.66
2022-12-22T17:24:04.510Z,2.73
2022-12-22T17:30:18.224Z,2.71
2022-12-22T17:36:23.432Z,2.80
2022-12-22T17:42:25.562Z,2.78
2022-12-22T17:48:27.636Z,2.65
2022-12-22T17:54:30.279Z,2.57
2022-12-22T18:00:33.005Z,2.44
2022-12-22T18:06:38.543Z,2.42
2022-12-22T18:12:40.633Z,2.62
2022-12-22T18:18:43.888Z,2.64
2022-12-22T18:24:47.444Z,2.81
